createdAt,value
2018-04-20T00:00:46.654Z,2.30
2018-04-20T00:01:46.615Z,2.40
2018-04-20T00:02:46.596Z,2.60
2018-04-20T00:03:46.547Z,2.40
2018-04-20T00:04:46.501Z,2.40
2018-04-20T00:05:46.468Z,2.50
2018-04-20T00:06:46.457Z,2.60
2018-04-20T00:07:46.406Z,2.30
2018-04-20T00:08:46.353Z,2.60
2018-04-20T00:09:46.334Z,2.20
2018-04-20T00:10:46.295Z,2.20
2018-04-20T00:11:46.255Z,2.30
2018-04-20T00:12:46.242Z,2.20
2018-04-20T00:13:46.187Z,2.50
2018-04-20T00:14:46.144Z,2.60
2018-04-20T00:15:46.108Z,2.50
2018-04-20T00:16:46.076Z,2.30
2018-04-20T00:17:46.075Z,2.60
2018-04-20T00:18:46.007Z,2.40
2018-04-20T00:19:45.975Z,2.40
2018-04-20T00:20:45.934Z,2.20
2018-04-20T00:21:45.895Z,2.40
2018-04-20T00:22:45.869Z,2.60
2018-04-20T00:23:45.839Z,2.40
2018-04-20T00:24:45.785Z,2.40
2018-04-20T00:25:45.755Z,2.60
2018-04-20T00:26:45.719Z,2.40
2018-04-20T00:27:45.678Z,2.60
2018-04-20T00:28:45.678Z,2.70
2018-04-20T00:29:45.617Z,2.60
2018-04-20T00:30:45.576Z,2.50
2018-04-20T00:31:45.533Z,2.50
2018-04-20T00:32:45.495Z,2.40
2018-04-20T00:33:45.490Z,2.70
2018-04-20T00:34:45.486Z,2.30
2018-04-20T00:35:45.395Z,2.60
2018-04-20T00:36:45.350Z,2.70
2018-04-20T00:37:45.325Z,2.30
2018-04-20T00:38:45.301Z,2.80
2018-04-20T00:39:45.244Z,2.30
2018-04-20T00:40:45.212Z,2.80
2018-04-20T00:41:45.177Z,2.60
2018-04-20T00:42:45.142Z,2.60
2018-04-20T00:43:45.122Z,2.60
2018-04-20T00:44:45.061Z,2.60
2018-04-20T00:45:45.019Z,2.80
2018-04-20T00:46:44.989Z,2.90
2018-04-20T00:47:44.963Z,2.90
2018-04-20T00:48:44.944Z,2.80
2018-04-20T00:49:44.879Z,2.70
2018-04-20T00:50:44.849Z,2.70
2018-04-20T00:51:44.803Z,2.90
2018-04-20T00:52:44.772Z,3.00
2018-04-20T00:53:44.730Z,2.70
2018-04-20T00:54:44.716Z,2.70
2018-04-20T00:55:44.652Z,2.80
2018-04-20T00:56:44.647Z,3.10
2018-04-20T00:57:44.577Z,2.80
2018-04-20T00:58:44.546Z,3.10
2018-04-20T00:59:44.537Z,3.10
2018-04-20T01:00:44.514Z,3.00
2018-04-20T01:01:44.437Z,3.00
2018-04-20T01:02:44.395Z,3.50
2018-04-20T01:03:44.361Z,3.00
2018-04-20T01:04:44.356Z,3.10
2018-04-20T01:05:44.281Z,3.10
2018-04-20T01:06:44.246Z,3.20
2018-04-20T01:07:44.216Z,3.50
2018-04-20T01:08:44.174Z,3.30
2018-04-20T01:09:44.134Z,3.30
2018-04-20T01:10:44.113Z,3.00
2018-04-20T01:11:44.057Z,3.10
2018-04-20T01:12:44.026Z,3.20
2018-04-20T01:13:43.990Z,3.10
2018-04-20T01:14:43.952Z,3.20
2018-04-20T01:15:43.936Z,3.20
2018-04-20T01:16:43.873Z,3.30
2018-04-20T01:17:43.830Z,3.20
2018-04-20T01:18:43.791Z,3.10
2018-04-20T01:19:43.759Z,3.00
2018-04-20T01:20:43.743Z,3.00
2018-04-20T01:21:43.681Z,3.30
2018-04-20T01:22:43.650Z,3.20
2018-04-20T01:23:43.608Z,3.10
2018-04-20T01:24:43.578Z,3.20
2018-04-20T01:25:43.550Z,3.00
2018-04-20T01:26:43.499Z,3.20
2018-04-20T01:27:43.450Z,3.00
2018-04-20T01:28:43.426Z,3.10
2018-04-20T01:29:43.382Z,2.70
2018-04-20T01:30:43.369Z,2.90
2018-04-20T01:31:43.303Z,3.10
2018-04-20T01:32:43.266Z,3.40
2018-04-20T01:33:43.228Z,3.10
2018-04-20T01:34:43.193Z,3.30
2018-04-20T01:35:43.185Z,3.10
2018-04-20T01:36:43.113Z,3.30
2018-04-20T01:37:43.070Z,3.30
2018-04-20T01:38:43.039Z,3.10
2018-04-20T01:39:43.007Z,3.80
2018-04-20T01:40:42.971Z,3.10
2018-04-20T01:41:42.951Z,3.20
2018-04-20T01:42:42.889Z,3.00
2018-04-20T01:43:42.853Z,3.70
2018-04-20T01:44:42.807Z,3.60
2018-04-20T01:45:42.802Z,3.30
2018-04-20T01:46:42.735Z,3.20
2018-04-20T01:47:42.692Z,3.80
2018-04-20T01:48:42.665Z,3.20
2018-04-20T01:49:42.628Z,3.10
2018-04-20T01:50:42.602Z,3.40
2018-04-20T01:51:42.546Z,3.00
2018-04-20T01:52:42.508Z,3.20
2018-04-20T01:53:42.475Z,3.30
2018-04-20T01:54:42.443Z,3.10
2018-04-20T01:55:42.449Z,3.10
2018-04-20T01:56:42.356Z,3.40
2018-04-20T01:57:42.323Z,3.40
2018-04-20T01:58:42.281Z,3.30
2018-04-20T01:59:42.243Z,3.30
2018-04-20T02:00:42.210Z,3.40
2018-04-20T02:01:42.187Z,3.50
2018-04-20T02:02:42.120Z,3.50
2018-04-20T02:03:42.095Z,3.40
2018-04-20T02:04:42.060Z,3.40
2018-04-20T02:05:42.009Z,3.50
2018-04-20T02:06:42.008Z,3.60
2018-04-20T02:07:41.934Z,3.80
2018-04-20T02:08:41.902Z,3.50
2018-04-20T02:09:41.854Z,3.40
2018-04-20T02:10:41.823Z,3.40
2018-04-20T02:11:41.810Z,3.10
2018-04-20T02:12:41.749Z,3.10
2018-04-20T02:13:41.710Z,3.40
2018-04-20T02:14:41.675Z,3.40
2018-04-20T02:15:41.643Z,3.30
2018-04-20T02:16:41.626Z,3.60
2018-04-20T02:17:41.558Z,3.60
2018-04-20T02:18:41.529Z,3.50
2018-04-20T02:19:41.480Z,3.60
2018-04-20T02:20:41.450Z,3.60
2018-04-20T02:21:41.400Z,3.60
2018-04-20T02:22:41.392Z,3.30
2018-04-20T02:23:41.330Z,3.90
2018-04-20T02:24:41.284Z,3.60
2018-04-20T02:25:41.248Z,3.60
2018-04-20T02:26:41.215Z,3.70
2018-04-20T02:27:41.199Z,3.60
2018-04-20T02:28:41.142Z,3.20
2018-04-20T02:29:41.095Z,3.10
2018-04-20T02:30:41.064Z,3.10
2018-04-20T02:31:41.023Z,3.20
2018-04-20T02:32:41.017Z,3.30
2018-04-20T02:33:40.940Z,3.60
2018-04-20T02:34:40.899Z,3.10
2018-04-20T02:35:40.883Z,3.40
2018-04-20T02:36:40.836Z,3.40
2018-04-20T02:37:40.812Z,3.40
2018-04-20T02:38:40.754Z,3.80
2018-04-20T02:39:40.718Z,3.70
2018-04-20T02:40:40.688Z,3.50
2018-04-20T02:41:40.634Z,3.60
2018-04-20T02:42:40.623Z,3.40
2018-04-20T02:43:40.572Z,3.60
2018-04-20T02:44:40.525Z,3.40
2018-04-20T02:45:40.485Z,3.60
2018-04-20T02:46:40.447Z,3.70
2018-04-20T02:47:40.418Z,3.40
2018-04-20T02:48:40.386Z,3.50
2018-04-20T02:49:40.333Z,3.10
2018-04-20T02:50:40.296Z,3.20
2018-04-20T02:51:40.248Z,3.00
2018-04-20T02:52:40.225Z,3.40
2018-04-20T02:53:40.202Z,3.10
2018-04-20T02:54:40.135Z,3.50
2018-04-20T02:55:40.099Z,3.70
2018-04-20T02:56:40.066Z,3.50
2018-04-20T02:57:40.031Z,3.60
2018-04-20T02:58:40.011Z,3.90
2018-04-20T02:59:39.956Z,3.60
2018-04-20T03:00:39.914Z,3.30
2018-04-20T03:01:39.871Z,3.50
2018-04-20T03:02:39.832Z,3.70
2018-04-20T03:03:39.822Z,3.70
2018-04-20T03:04:39.758Z,3.80
2018-04-20T03:05:39.725Z,4.00
2018-04-20T03:06:39.677Z,3.90
2018-04-20T03:07:39.643Z,3.40
2018-04-20T03:08:39.625Z,3.60
2018-04-20T03:09:39.562Z,3.20
2018-04-20T03:10:39.535Z,3.50
2018-04-20T03:11:39.483Z,3.20
2018-04-20T03:12:39.455Z,3.30
2018-04-20T03:13:39.445Z,3.20
2018-04-20T03:14:39.370Z,3.40
2018-04-20T03:15:39.337Z,3.50
2018-04-20T03:16:39.291Z,3.40
2018-04-20T03:17:39.260Z,3.30
2018-04-20T03:18:39.231Z,3.50
2018-04-20T03:19:39.223Z,3.60
2018-04-20T03:20:39.133Z,3.60
2018-04-20T03:21:39.102Z,3.40
2018-04-20T03:22:39.063Z,3.70
2018-04-20T03:23:39.026Z,4.00
2018-04-20T03:24:39.023Z,3.50
2018-04-20T03:25:38.960Z,3.90
2018-04-20T03:26:38.916Z,3.70
2018-04-20T03:27:38.882Z,3.90
2018-04-20T03:28:38.831Z,3.90
2018-04-20T03:29:38.831Z,3.70
2018-04-20T03:30:38.768Z,3.70
2018-04-20T03:31:38.721Z,3.40
2018-04-20T03:32:38.683Z,3.50
2018-04-20T03:33:38.654Z,3.30
2018-04-20T03:34:38.647Z,3.40
2018-04-20T03:35:38.571Z,3.40
2018-04-20T03:36:38.524Z,3.60
2018-04-20T03:37:38.489Z,3.60
2018-04-20T03:38:38.441Z,3.80
2018-04-20T03:39:38.421Z,3.80
2018-04-20T03:40:38.400Z,3.60
2018-04-20T03:41:38.365Z,3.80
2018-04-20T03:42:38.302Z,3.40
2018-04-20T03:43:38.265Z,3.50
2018-04-20T03:44:38.234Z,4.10
2018-04-20T03:45:38.210Z,4.00
2018-04-20T03:46:38.138Z,3.60
2018-04-20T03:47:38.113Z,3.80
2018-04-20T03:48:38.068Z,4.10
2018-04-20T03:49:38.035Z,3.60
2018-04-20T03:50:38.015Z,3.70
2018-04-20T03:51:37.961Z,3.70
2018-04-20T03:52:37.910Z,3.70
2018-04-20T03:53:37.871Z,3.60
2018-04-20T03:54:37.826Z,3.70
2018-04-20T03:55:37.816Z,3.70
2018-04-20T03:56:37.758Z,3.60
2018-04-20T03:57:37.722Z,3.80
2018-04-20T03:58:37.682Z,3.70
2018-04-20T03:59:37.640Z,4.20
2018-04-20T04:00:37.632Z,4.40
2018-04-20T04:01:37.560Z,4.20
2018-04-20T04:02:37.517Z,4.00
2018-04-20T04:03:37.482Z,4.40
2018-04-20T04:04:37.453Z,4.00
2018-04-20T04:05:37.433Z,4.10
2018-04-20T04:06:37.366Z,3.80
2018-04-20T04:07:37.331Z,4.10
2018-04-20T04:08:37.285Z,4.30
2018-04-20T04:09:37.251Z,4.20
2018-04-20T04:10:37.220Z,4.10
2018-04-20T04:11:37.197Z,4.00
2018-04-20T04:12:37.139Z,4.10
2018-04-20T04:13:37.097Z,4.30
2018-04-20T04:14:37.056Z,4.10
2018-04-20T04:15:37.040Z,4.40
2018-04-20T04:16:36.981Z,4.40
2018-04-20T04:17:36.948Z,4.10
2018-04-20T04:18:36.909Z,4.00
2018-04-20T04:19:36.862Z,4.60
2018-04-20T04:20:36.848Z,4.20
2018-04-20T04:21:36.789Z,4.30
2018-04-20T04:22:36.753Z,4.50
2018-04-20T04:23:36.710Z,4.40
2018-04-20T04:24:36.706Z,4.20
2018-04-20T04:25:36.650Z,4.60
2018-04-20T04:26:36.589Z,4.10
2018-04-20T04:27:36.554Z,4.20
2018-04-20T04:28:36.515Z,4.30
2018-04-20T04:29:36.480Z,4.10
2018-04-20T04:30:36.469Z,4.10
2018-04-20T04:31:36.392Z,4.50
2018-04-20T04:32:36.362Z,4.20
2018-04-20T04:33:36.316Z,4.20
2018-04-20T04:34:36.281Z,4.40
2018-04-20T04:35:36.241Z,4.20
2018-04-20T04:36:36.224Z,4.60
2018-04-20T04:37:36.164Z,4.50
2018-04-20T04:38:36.130Z,4.40
2018-04-20T04:39:36.093Z,4.30
2018-04-20T04:40:36.046Z,4.00
2018-04-20T04:41:36.037Z,4.20
2018-04-20T04:42:35.969Z,4.50
2018-04-20T04:43:35.926Z,4.50
2018-04-20T04:44:35.887Z,4.40
2018-04-20T04:45:35.848Z,4.30
2018-04-20T04:46:35.833Z,4.70
2018-04-20T04:47:35.780Z,4.20
2018-04-20T04:48:35.729Z,4.50
2018-04-20T04:49:35.697Z,4.70
2018-04-20T04:50:35.654Z,4.50
2018-04-20T04:51:35.649Z,4.20
2018-04-20T04:52:35.584Z,4.30
2018-04-20T04:53:35.541Z,4.20
2018-04-20T04:54:35.511Z,4.20
2018-04-20T04:55:35.476Z,4.60
2018-04-20T04:56:35.425Z,4.40
2018-04-20T04:57:35.410Z,4.30
2018-04-20T04:58:35.340Z,4.60
2018-04-20T04:59:35.308Z,4.00
2018-04-20T05:00:35.262Z,4.00
2018-04-20T05:01:35.233Z,4.10
2018-04-20T05:02:35.217Z,4.00
2018-04-20T05:03:35.210Z,4.30
2018-04-20T05:04:35.109Z,4.20
2018-04-20T05:05:35.072Z,4.50
2018-04-20T05:06:35.028Z,4.20
2018-04-20T05:07:35.021Z,4.20
2018-04-20T05:08:34.958Z,4.30
2018-04-20T05:09:34.922Z,4.30
2018-04-20T05:10:34.887Z,4.00
2018-04-20T05:11:34.841Z,4.30
2018-04-20T05:12:34.822Z,4.20
2018-04-20T05:13:34.767Z,4.30
2018-04-20T05:14:34.728Z,4.10
2018-04-20T05:15:34.689Z,4.30
2018-04-20T05:16:34.646Z,4.20
2018-04-20T05:17:34.631Z,3.80
2018-04-20T05:18:34.571Z,4.00
2018-04-20T05:19:34.532Z,3.80
2018-04-20T05:20:34.482Z,4.00
2018-04-20T05:21:34.458Z,3.90
2018-04-20T05:22:34.452Z,3.80
2018-04-20T05:23:34.379Z,4.10
2018-04-20T05:24:34.347Z,3.70
2018-04-20T05:25:34.307Z,3.80
2018-04-20T05:26:34.266Z,4.10
2018-04-20T05:27:34.226Z,4.00
2018-04-20T05:28:34.218Z,4.00
2018-04-20T05:29:34.142Z,4.50
2018-04-20T05:30:34.106Z,4.80
2018-04-20T05:31:34.072Z,4.70
2018-04-20T05:32:34.035Z,4.10
2018-04-20T05:33:34.024Z,4.00
2018-04-20T05:34:33.966Z,4.30
2018-04-20T05:35:33.926Z,4.00
2018-04-20T05:36:33.900Z,4.00
2018-04-20T05:37:33.848Z,4.70
2018-04-20T05:38:33.829Z,4.30
2018-04-20T05:39:33.780Z,4.30
2018-04-20T05:40:33.743Z,4.20
2018-04-20T05:41:33.704Z,4.60
2018-04-20T05:42:33.662Z,4.50
2018-04-20T05:43:33.637Z,4.30
2018-04-20T05:44:33.620Z,4.40
2018-04-20T05:45:33.568Z,4.20
2018-04-20T05:46:33.525Z,4.30
2018-04-20T05:47:33.490Z,4.50
2018-04-20T05:48:33.448Z,4.10
2018-04-20T05:49:33.447Z,4.00
2018-04-20T05:50:33.381Z,3.90
2018-04-20T05:51:33.343Z,3.60
2018-04-20T05:52:33.305Z,3.90
2018-04-20T05:53:33.278Z,4.10
2018-04-20T05:54:33.275Z,3.90
2018-04-20T05:55:33.199Z,3.70
2018-04-20T05:56:33.168Z,4.10
2018-04-20T05:57:33.136Z,4.30
2018-04-20T05:58:33.099Z,3.90
2018-04-20T05:59:33.080Z,3.90
2018-04-20T06:00:33.036Z,3.70
2018-04-20T06:01:32.996Z,3.90
2018-04-20T06:02:32.963Z,3.90
2018-04-20T06:03:32.934Z,3.80
2018-04-20T06:04:32.909Z,3.90
2018-04-20T06:05:32.892Z,3.90
2018-04-20T06:06:32.822Z,3.80
2018-04-20T06:07:32.782Z,4.20
2018-04-20T06:08:32.752Z,4.00
2018-04-20T06:09:32.743Z,3.80
2018-04-20T06:10:32.688Z,4.10
2018-04-20T06:11:32.656Z,4.00
2018-04-20T06:12:32.609Z,4.10
2018-04-20T06:13:32.589Z,4.20
2018-04-20T06:14:32.573Z,4.50
2018-04-20T06:15:32.520Z,4.50
2018-04-20T06:16:32.483Z,4.40
2018-04-20T06:17:32.451Z,4.50
2018-04-20T06:18:32.411Z,4.00
2018-04-20T06:19:32.379Z,4.60
2018-04-20T06:20:32.368Z,4.30
2018-04-20T06:21:32.309Z,4.50
2018-04-20T06:22:32.272Z,4.50
2018-04-20T06:23:32.249Z,4.80
2018-04-20T06:24:32.211Z,4.50
2018-04-20T06:25:32.199Z,4.80
2018-04-20T06:26:32.138Z,4.70
2018-04-20T06:27:32.105Z,4.60
2018-04-20T06:28:32.079Z,4.50
2018-04-20T06:29:32.035Z,4.80
2018-04-20T06:30:32.023Z,5.00
2018-04-20T06:31:31.961Z,5.00
2018-04-20T06:32:31.940Z,4.80
2018-04-20T06:33:31.905Z,5.00
2018-04-20T06:34:31.871Z,5.20
2018-04-20T06:35:31.870Z,4.60
2018-04-20T06:36:31.796Z,5.10
2018-04-20T06:37:31.765Z,4.90
2018-04-20T06:38:31.739Z,5.30
2018-04-20T06:39:31.703Z,5.00
2018-04-20T06:40:31.692Z,5.10
2018-04-20T06:41:31.635Z,5.40
2018-04-20T06:42:31.605Z,4.90
2018-04-20T06:43:31.567Z,5.30
2018-04-20T06:44:31.531Z,5.10
2018-04-20T06:45:31.506Z,5.30
2018-04-20T06:46:31.489Z,4.70
2018-04-20T06:47:31.442Z,4.90
2018-04-20T06:48:31.401Z,4.80
2018-04-20T06:49:31.373Z,4.70
2018-04-20T06:50:31.340Z,5.10
2018-04-20T06:51:31.330Z,4.90
2018-04-20T06:52:31.278Z,5.00
2018-04-20T06:53:31.252Z,4.60
2018-04-20T06:54:31.214Z,4.70
2018-04-20T06:55:31.179Z,4.70
2018-04-20T06:56:31.170Z,5.00
2018-04-20T06:57:31.118Z,4.50
2018-04-20T06:58:31.088Z,5.10
2018-04-20T06:59:31.048Z,4.50
2018-04-20T07:00:31.022Z,4.40
2018-04-20T07:01:31.004Z,4.60
2018-04-20T07:02:30.953Z,4.60
2018-04-20T07:03:30.918Z,4.50
2018-04-20T07:04:30.904Z,4.90
2018-04-20T07:05:30.855Z,4.40
2018-04-20T07:06:30.856Z,4.30
2018-04-20T07:07:30.808Z,4.10
2018-04-20T07:08:30.770Z,4.00
2018-04-20T07:09:30.736Z,3.70
2018-04-20T07:10:30.706Z,4.00
2018-04-20T07:11:30.697Z,3.80
2018-04-20T07:12:30.651Z,3.80
2018-04-20T07:13:30.620Z,3.80
2018-04-20T07:14:30.585Z,3.50
2018-04-20T07:15:30.554Z,3.40
2018-04-20T07:16:30.555Z,3.20
2018-04-20T07:17:30.486Z,3.40
2018-04-20T07:18:30.463Z,3.60
2018-04-20T07:19:30.438Z,3.80
2018-04-20T07:20:30.401Z,3.30
2018-04-20T07:21:30.406Z,3.30
2018-04-20T07:22:30.339Z,3.40
2018-04-20T07:23:30.303Z,3.20
2018-04-20T07:24:30.281Z,3.20
2018-04-20T07:25:30.240Z,3.30
2018-04-20T07:26:30.237Z,3.20
2018-04-20T07:27:30.193Z,3.50
2018-04-20T07:28:30.154Z,3.30
2018-04-20T07:29:30.130Z,3.40
2018-04-20T07:30:30.093Z,3.50
2018-04-20T07:31:30.066Z,3.60
2018-04-20T07:32:30.060Z,3.50
2018-04-20T07:33:30.017Z,3.10
2018-04-20T07:34:29.971Z,3.60
2018-04-20T07:35:29.951Z,3.50
2018-04-20T07:36:29.913Z,3.80
2018-04-20T07:37:29.908Z,3.40
2018-04-20T07:38:29.853Z,3.50
2018-04-20T07:39:29.829Z,3.40
2018-04-20T07:40:29.791Z,3.20
2018-04-20T07:41:29.833Z,3.70
2018-04-20T07:42:29.769Z,3.60
2018-04-20T07:43:29.714Z,3.60
2018-04-20T07:44:29.676Z,3.70
2018-04-20T07:45:29.638Z,3.70
2018-04-20T07:46:29.621Z,3.70
2018-04-20T07:47:29.611Z,3.50
2018-04-20T07:48:29.556Z,3.60
2018-04-20T07:49:29.539Z,3.50
2018-04-20T07:50:29.487Z,3.50
2018-04-20T07:51:29.469Z,3.70
2018-04-20T07:52:29.465Z,3.90
2018-04-20T07:53:29.406Z,3.50
2018-04-20T07:54:29.377Z,3.80
2018-04-20T07:55:29.344Z,3.50
2018-04-20T07:56:29.320Z,3.50
2018-04-20T07:57:29.280Z,3.70
2018-04-20T07:58:29.277Z,3.60
2018-04-20T07:59:29.223Z,3.60
2018-04-20T08:00:29.196Z,3.70
2018-04-20T08:01:29.160Z,3.60
2018-04-20T08:02:29.133Z,3.80
2018-04-20T08:03:29.135Z,3.70
2018-04-20T08:04:29.078Z,3.60
2018-04-20T08:05:29.052Z,3.80
2018-04-20T08:06:29.017Z,3.80
2018-04-20T08:07:28.990Z,4.00
2018-04-20T08:08:28.977Z,3.70
2018-04-20T08:09:28.931Z,3.70
2018-04-20T08:10:28.898Z,4.10
2018-04-20T08:11:28.860Z,3.50
2018-04-20T08:12:28.837Z,3.30
2018-04-20T08:13:28.834Z,3.80
2018-04-20T08:14:28.785Z,3.40
2018-04-20T08:15:28.757Z,3.60
2018-04-20T08:16:28.722Z,3.90
2018-04-20T08:17:28.699Z,3.60
2018-04-20T08:18:28.691Z,4.00
2018-04-20T08:19:28.629Z,3.70
2018-04-20T08:20:28.602Z,4.00
2018-04-20T08:21:28.570Z,3.90
2018-04-20T08:22:28.555Z,4.20
2018-04-20T08:23:28.515Z,4.10
2018-04-20T08:24:28.521Z,4.20
2018-04-20T08:25:28.471Z,4.30
2018-04-20T08:26:28.435Z,3.90
2018-04-20T08:27:28.445Z,4.00
2018-04-20T08:28:28.381Z,4.20
2018-04-20T08:29:28.375Z,4.40
2018-04-20T08:30:28.326Z,4.00
2018-04-20T08:31:28.288Z,4.00
2018-04-20T08:32:28.260Z,3.80
2018-04-20T08:33:28.229Z,4.00
2018-04-20T08:34:28.229Z,4.00
2018-04-20T08:35:28.172Z,4.10
2018-04-20T08:36:28.154Z,4.30
2018-04-20T08:37:28.126Z,4.10
2018-04-20T08:38:28.089Z,4.40
2018-04-20T08:39:28.095Z,3.70
2018-04-20T08:40:28.030Z,4.10
2018-04-20T08:41:28.003Z,3.90
2018-04-20T08:42:27.976Z,4.00
2018-04-20T08:43:27.941Z,4.00
2018-04-20T08:44:27.950Z,4.00
2018-04-20T08:45:27.888Z,4.00
2018-04-20T08:46:27.860Z,4.00
2018-04-20T08:47:27.839Z,4.10
2018-04-20T08:48:27.809Z,4.30
2018-04-20T08:49:27.806Z,4.10
2018-04-20T08:50:27.751Z,4.20
2018-04-20T08:51:27.720Z,4.40
2018-04-20T08:52:27.704Z,4.70
2018-04-20T08:53:27.669Z,4.20
2018-04-20T08:54:27.639Z,4.00
2018-04-20T08:55:27.642Z,4.10
2018-04-20T08:56:27.590Z,3.90
2018-04-20T08:57:27.555Z,3.90
2018-04-20T08:58:27.530Z,4.50
2018-04-20T08:59:27.515Z,4.60
2018-04-20T09:00:27.514Z,4.00
2018-04-20T09:01:27.483Z,4.10
2018-04-20T09:02:27.424Z,4.30
2018-04-20T09:03:27.402Z,4.40
2018-04-20T09:04:27.381Z,4.00
2018-04-20T09:05:27.363Z,3.90
2018-04-20T09:06:27.314Z,4.20
2018-04-20T09:07:27.294Z,4.50
2018-04-20T09:08:27.272Z,3.80
2018-04-20T09:09:27.238Z,4.30
2018-04-20T09:10:27.241Z,4.50
2018-04-20T09:11:27.196Z,4.70
2018-04-20T09:12:27.156Z,4.60
2018-04-20T09:13:27.133Z,4.90
2018-04-20T09:14:27.110Z,5.00
2018-04-20T09:15:27.105Z,4.80
2018-04-20T09:16:27.063Z,4.80
2018-04-20T09:17:27.039Z,4.90
2018-04-20T09:18:27.031Z,4.90
2018-04-20T09:19:26.998Z,4.80
2018-04-20T09:20:26.973Z,5.00
2018-04-20T09:21:26.931Z,4.80
2018-04-20T09:22:26.907Z,4.90
2018-04-20T09:23:26.886Z,4.90
2018-04-20T09:24:26.858Z,5.10
2018-04-20T09:25:26.847Z,5.20
2018-04-20T09:26:26.805Z,4.80
2018-04-20T09:27:26.776Z,5.10
2018-04-20T09:28:26.753Z,4.90
2018-04-20T09:29:26.722Z,5.20
2018-04-20T09:30:26.729Z,5.10
2018-04-20T09:31:26.670Z,5.10
2018-04-20T09:32:26.637Z,4.80
2018-04-20T09:33:26.620Z,5.00
2018-04-20T09:34:26.610Z,5.10
2018-04-20T09:35:26.562Z,4.80
2018-04-20T09:36:26.570Z,4.90
2018-04-20T09:37:26.513Z,4.90
2018-04-20T09:38:26.490Z,4.90
2018-04-20T09:39:26.464Z,4.90
2018-04-20T09:40:26.432Z,5.10
2018-04-20T09:41:26.450Z,4.90
2018-04-20T09:42:26.388Z,5.20
2018-04-20T09:43:26.366Z,5.20
2018-04-20T09:44:26.336Z,4.70
2018-04-20T09:45:26.316Z,4.50
2018-04-20T09:46:26.310Z,4.50
2018-04-20T09:47:26.258Z,4.60
2018-04-20T09:48:26.247Z,4.90
2018-04-20T09:49:26.211Z,5.20
2018-04-20T09:50:26.183Z,5.10
2018-04-20T09:51:26.197Z,5.10
2018-04-20T09:52:26.129Z,4.80
2018-04-20T09:53:26.118Z,5.30
2018-04-20T09:54:26.088Z,5.00
2018-04-20T09:55:26.053Z,5.10
2018-04-20T09:56:26.077Z,5.10
2018-04-20T09:57:26.009Z,4.90
2018-04-20T09:58:26.031Z,4.60
2018-04-20T09:59:25.965Z,5.00
2018-04-20T10:00:25.947Z,4.70
2018-04-20T10:01:25.910Z,4.50
2018-04-20T10:02:25.909Z,4.60
2018-04-20T10:03:25.867Z,4.80
2018-04-20T10:04:25.847Z,5.10
2018-04-20T10:05:25.889Z,4.90
2018-04-20T10:06:25.799Z,5.10
2018-04-20T10:07:25.791Z,4.80
2018-04-20T10:08:25.752Z,4.80
2018-04-20T10:09:25.723Z,5.60
2018-04-20T10:10:25.702Z,5.70
2018-04-20T10:11:25.672Z,5.30
2018-04-20T10:12:25.668Z,5.10
2018-04-20T10:13:25.623Z,4.50
2018-04-20T10:14:25.591Z,5.00
2018-04-20T10:15:25.574Z,4.90
2018-04-20T10:16:25.552Z,4.90
2018-04-20T10:17:25.566Z,4.90
2018-04-20T10:18:25.509Z,5.00
2018-04-20T10:19:25.476Z,4.50
2018-04-20T10:20:25.459Z,4.80
2018-04-20T10:21:25.433Z,5.30
2018-04-20T10:22:25.421Z,5.60
2018-04-20T10:23:25.413Z,5.20
2018-04-20T10:24:25.364Z,5.30
2018-04-20T10:25:25.349Z,5.20
2018-04-20T10:26:25.319Z,5.10
2018-04-20T10:27:25.300Z,5.20
2018-04-20T10:28:25.309Z,5.10
2018-04-20T10:29:25.255Z,5.00
2018-04-20T10:30:25.231Z,5.00
2018-04-20T10:31:25.198Z,4.60
2018-04-20T10:32:25.189Z,5.30
2018-04-20T10:33:25.180Z,4.70
2018-04-20T10:34:25.143Z,5.00
2018-04-20T10:35:25.111Z,5.10
2018-04-20T10:36:25.097Z,4.70
2018-04-20T10:37:25.073Z,5.10
2018-04-20T10:38:25.064Z,4.60
2018-04-20T10:39:25.028Z,5.40
2018-04-20T10:40:25.001Z,5.10
2018-04-20T10:41:24.996Z,5.10
2018-04-20T10:42:24.952Z,4.90
2018-04-20T10:43:24.956Z,4.50
2018-04-20T10:44:24.904Z,4.80
2018-04-20T10:45:24.890Z,5.20
2018-04-20T10:46:24.855Z,4.70
2018-04-20T10:47:24.841Z,5.10
2018-04-20T10:48:24.847Z,4.50
2018-04-20T10:49:24.806Z,4.60
2018-04-20T10:50:24.783Z,4.50
2018-04-20T10:51:24.759Z,4.40
2018-04-20T10:52:24.733Z,4.20
2018-04-20T10:53:24.710Z,4.10
2018-04-20T10:54:24.705Z,4.50
2018-04-20T10:55:24.665Z,4.40
2018-04-20T10:56:24.650Z,4.20
2018-04-20T10:57:24.625Z,4.10
2018-04-20T10:58:24.610Z,4.10
2018-04-20T10:59:24.608Z,4.70
2018-04-20T11:00:24.557Z,4.20
2018-04-20T11:01:24.539Z,4.10
2018-04-20T11:02:24.522Z,4.40
2018-04-20T11:03:24.494Z,4.20
2018-04-20T11:04:24.498Z,4.40
2018-04-20T11:05:24.456Z,4.00
2018-04-20T11:06:24.429Z,4.00
2018-04-20T11:07:24.408Z,4.30
2018-04-20T11:08:24.387Z,4.00
2018-04-20T11:09:24.394Z,4.30
2018-04-20T11:10:24.350Z,4.00
2018-04-20T11:11:24.353Z,4.40
2018-04-20T11:12:24.306Z,3.70
2018-04-20T11:13:24.275Z,4.30
2018-04-20T11:14:24.256Z,3.80
2018-04-20T11:15:24.259Z,3.70
2018-04-20T11:16:24.242Z,3.80
2018-04-20T11:17:24.204Z,3.70
2018-04-20T11:18:24.166Z,3.80
2018-04-20T11:19:24.154Z,3.70
2018-04-20T11:20:24.155Z,3.50
2018-04-20T11:21:24.116Z,3.40
2018-04-20T11:22:24.092Z,3.50
2018-04-20T11:23:24.072Z,3.00
2018-04-20T11:24:24.051Z,3.30
2018-04-20T11:25:24.046Z,3.00
2018-04-20T11:26:24.011Z,3.00
2018-04-20T11:27:23.990Z,3.20
2018-04-20T11:28:23.970Z,3.10
2018-04-20T11:29:23.958Z,2.90
2018-04-20T11:30:23.954Z,2.60
2018-04-20T11:31:23.898Z,2.80
2018-04-20T11:32:23.893Z,2.90
2018-04-20T11:33:23.856Z,3.00
2018-04-20T11:34:23.849Z,3.30
2018-04-20T11:35:23.817Z,3.20
2018-04-20T11:36:23.864Z,3.10
2018-04-20T11:37:23.780Z,3.30
2018-04-20T11:38:23.771Z,3.10
2018-04-20T11:39:23.740Z,3.00
2018-04-20T11:40:23.757Z,3.20
2018-04-20T11:41:23.714Z,3.10
2018-04-20T11:42:23.684Z,3.30
2018-04-20T11:43:23.663Z,3.10
2018-04-20T11:44:23.649Z,3.40
2018-04-20T11:45:23.619Z,3.50
2018-04-20T11:46:23.622Z,3.40
2018-04-20T11:47:23.627Z,4.00
2018-04-20T11:48:23.568Z,3.60
2018-04-20T11:49:23.545Z,3.70
2018-04-20T11:50:23.520Z,3.70
2018-04-20T11:51:23.527Z,3.60
2018-04-20T11:52:23.488Z,3.90
2018-04-20T11:53:23.478Z,3.40
2018-04-20T11:54:23.462Z,3.80
2018-04-20T11:55:23.427Z,3.50
2018-04-20T11:56:23.435Z,3.20
2018-04-20T11:57:23.380Z,3.70
2018-04-20T11:58:23.374Z,3.00
2018-04-20T11:59:23.344Z,2.80
2018-04-20T12:00:23.324Z,3.10
2018-04-20T12:01:23.301Z,3.10
2018-04-20T12:02:23.315Z,2.80
2018-04-20T12:03:23.263Z,3.50
2018-04-20T12:04:23.244Z,2.80
2018-04-20T12:05:23.215Z,3.10
2018-04-20T12:06:23.223Z,2.60
2018-04-20T12:07:23.194Z,2.60
2018-04-20T12:08:23.162Z,2.80
2018-04-20T12:09:23.140Z,2.70
2018-04-20T12:10:23.116Z,3.00
2018-04-20T12:11:23.093Z,3.00
2018-04-20T12:12:23.101Z,2.90
2018-04-20T12:13:23.054Z,2.80
2018-04-20T12:14:23.037Z,2.80
2018-04-20T12:15:23.014Z,2.50
2018-04-20T12:16:23.003Z,2.80
2018-04-20T12:17:22.991Z,2.60
2018-04-20T12:18:22.946Z,2.80
2018-04-20T12:19:22.937Z,3.10
2018-04-20T12:20:22.910Z,2.40
2018-04-20T12:21:22.951Z,2.70
2018-04-20T12:22:22.909Z,2.50
2018-04-20T12:23:22.850Z,2.70
2018-04-20T12:24:22.824Z,2.90
2018-04-20T12:25:22.808Z,2.70
2018-04-20T12:26:22.792Z,2.90
2018-04-20T12:27:22.842Z,2.50
2018-04-20T12:28:22.772Z,2.50
2018-04-20T12:29:22.726Z,2.50
2018-04-20T12:30:22.698Z,2.80
2018-04-20T12:31:22.686Z,2.80
2018-04-20T12:32:22.664Z,3.00
2018-04-20T12:33:22.671Z,2.90
2018-04-20T12:34:22.621Z,3.10
2018-04-20T12:35:22.597Z,3.20
2018-04-20T12:36:22.574Z,2.80
2018-04-20T12:37:22.568Z,2.70
2018-04-20T12:38:22.558Z,2.90
2018-04-20T12:39:22.508Z,2.80
2018-04-20T12:40:22.491Z,2.90
2018-04-20T12:41:22.504Z,3.20
2018-04-20T12:42:22.451Z,3.30
2018-04-20T12:43:22.463Z,2.80
2018-04-20T12:44:22.435Z,2.70
2018-04-20T12:45:22.390Z,2.90
2018-04-20T12:46:22.370Z,2.70
2018-04-20T12:47:22.337Z,2.90
2018-04-20T12:48:22.327Z,2.80
2018-04-20T12:49:22.321Z,2.70
2018-04-20T12:50:22.285Z,3.30
2018-04-20T12:51:22.296Z,3.00
2018-04-20T12:52:22.238Z,3.00
2018-04-20T12:53:22.241Z,2.90
2018-04-20T12:54:22.216Z,2.80
2018-04-20T12:55:22.178Z,2.90
2018-04-20T12:56:22.147Z,2.90
2018-04-20T12:57:22.194Z,3.00
2018-04-20T12:58:22.121Z,2.80
2018-04-20T12:59:22.117Z,2.90
2018-04-20T13:00:22.077Z,2.90
2018-04-20T13:01:22.050Z,3.20
2018-04-20T13:02:22.029Z,3.60
2018-04-20T13:03:22.010Z,3.20
2018-04-20T13:04:22.009Z,3.10
2018-04-20T13:05:21.975Z,3.30
2018-04-20T13:06:21.946Z,3.40
2018-04-20T13:07:21.915Z,3.60
2018-04-20T13:08:21.903Z,3.80
2018-04-20T13:09:21.905Z,3.50
2018-04-20T13:10:21.868Z,3.30
2018-04-20T13:11:21.841Z,3.50
2018-04-20T13:12:21.807Z,3.70
2018-04-20T13:13:21.791Z,3.30
2018-04-20T13:14:21.764Z,2.80
2018-04-20T13:15:21.794Z,3.30
2018-04-20T13:16:21.715Z,3.40
2018-04-20T13:17:21.701Z,3.50
2018-04-20T13:18:21.728Z,3.30